Succasunna, New Jersey
Current Conditions -  °F | °C
As of 7:45 AM on Sunday 23 Nov 2014 (Local Time) from KMMU Reporting Station
Broken Clouds Broken Clouds  
Wind Chill: 39°   Ceiling: 12000
Heat Index: 39°   Visibility: 10mi
Dew Point: 23°   Wind: 0mph
Humidity: 52%   Direction: NA
Pressure: 30.21"   Gusts: NA
Location:  40.87°N, 74.64°W
Report Text: KMMU 231245Z 00000KT 10SM BKN120 04/M05 A3021
Loading
Personal Weather Stations






























Interactive Weather Map New forecast layout! Learn more

10-Day Weather Forecast

Advertisements
Track Severe Weather on mobile